Time;durP1;ratioP1;P1;durP2;ratioP2;P2;SDS_P1;SDS_P2;PMS_P1;PMS_P2;Temp;Humidity;BMP_temperature;BMP_pressure;BME280_temperature;BME280_humidity;BME280_pressure;Samples;Min_cycle;Max_cycle;Signal;HPM_P1;HPM_P2
2021/09/13 00:02:20;;;;;;;0.40;0.20;;;;;;;13.58;100.00;100439.28;5039408;28;20447;-49
2021/09/13 00:04:47;;;;;;;0.40;0.20;;;;;;;13.64;100.00;100444.38;5031936;28;20475;-49
2021/09/13 00:07:14;;;;;;;0.40;0.20;;;;;;;13.75;100.00;100436.81;5032219;28;20448;-49
2021/09/13 00:09:41;;;;;;;0.40;0.20;;;;;;;13.59;100.00;100447.22;5032053;28;21003;-49
2021/09/13 00:12:08;;;;;;;0.40;0.20;;;;;;;13.53;100.00;100439.44;5032382;28;20448;-50
2021/09/13 00:14:35;;;;;;;0.40;0.20;;;;;;;13.29;100.00;100437.69;5031925;28;20531;-50
2021/09/13 00:17:02;;;;;;;0.40;0.20;;;;;;;13.53;100.00;100434.09;5032242;28;20510;-52
2021/09/13 00:19:29;;;;;;;0.40;0.30;;;;;;;13.20;100.00;100425.56;5019229;28;20444;-51
2021/09/13 00:21:56;;;;;;;0.40;0.20;;;;;;;13.28;100.00;100427.94;5032189;28;20518;-50
2021/09/13 00:24:23;;;;;;;0.40;0.30;;;;;;;13.32;100.00;100430.44;5032174;28;20494;-50
2021/09/13 00:26:51;;;;;;;0.40;0.20;;;;;;;13.48;100.00;100430.72;5036188;28;20451;-51
2021/09/13 00:29:17;;;;;;;0.40;0.20;;;;;;;13.44;100.00;100431.78;5036480;28;20483;-50
2021/09/13 00:31:44;;;;;;;0.40;0.20;;;;;;;13.62;100.00;100435.53;5036201;28;20459;-49
2021/09/13 00:34:12;;;;;;;0.40;0.30;;;;;;;13.78;100.00;100428.66;5035983;28;20575;-49
2021/09/13 00:36:39;;;;;;;0.40;0.20;;;;;;;13.66;100.00;100422.94;5035794;28;20482;-49
2021/09/13 00:39:06;;;;;;;1.17;1.00;;;;;;;13.42;100.00;100436.28;5035914;28;20451;-50
2021/09/13 00:41:34;;;;;;;0.40;0.20;;;;;;;13.50;100.00;100433.34;5035780;28;20448;-49
2021/09/13 00:44:01;;;;;;;0.40;0.20;;;;;;;13.46;100.00;100427.25;5035773;28;20510;-50
2021/09/13 00:46:28;;;;;;;0.40;0.20;;;;;;;13.19;100.00;100431.84;5035302;28;20470;-49
2021/09/13 00:48:55;;;;;;;0.40;0.20;;;;;;;13.24;100.00;100420.97;5035648;28;20497;-50
2021/09/13 00:51:22;;;;;;;0.70;0.70;;;;;;;13.42;100.00;100427.41;5035496;28;20479;-49
2021/09/13 00:53:49;;;;;;;0.40;0.20;;;;;;;13.30;100.00;100421.63;5035888;28;20514;-49
2021/09/13 00:56:17;;;;;;;0.40;0.20;;;;;;;13.25;100.00;100418.25;5035356;28;20495;-49
2021/09/13 00:58:45;;;;;;;0.40;0.20;;;;;;;13.23;100.00;100422.78;5035746;28;20451;-49
2021/09/13 01:01:13;;;;;;;2.33;0.70;;;;;;;13.34;100.00;100419.72;5048693;28;21046;-49
2021/09/13 01:03:40;;;;;;;0.50;0.30;;;;;;;13.14;100.00;100416.88;5035488;28;20456;-51
2021/09/13 01:06:07;;;;;;;0.40;0.20;;;;;;;13.15;100.00;100414.13;5035007;28;20479;-49
2021/09/13 01:08:34;;;;;;;0.40;0.20;;;;;;;12.89;100.00;100417.78;5035338;28;20451;-50
2021/09/13 01:11:01;;;;;;;0.40;0.20;;;;;;;12.82;100.00;100420.72;5035188;28;20451;-50
2021/09/13 01:13:28;;;;;;;0.40;0.20;;;;;;;12.83;100.00;100420.66;5035405;28;20448;-50
2021/09/13 01:15:55;;;;;;;0.40;0.20;;;;;;;12.77;100.00;100412.88;5034952;28;20525;-50
2021/09/13 01:18:22;;;;;;;0.40;0.20;;;;;;;12.60;100.00;100418.78;5035038;28;20451;-49
2021/09/13 01:20:49;;;;;;;0.40;0.20;;;;;;;12.60;100.00;100413.44;5035109;28;20956;-49
2021/09/13 01:23:25;;;;;;;0.40;0.20;;;;;;;12.93;100.00;100414.06;5035018;28;20543;-49
2021/09/13 01:25:52;;;;;;;0.40;0.20;;;;;;;12.82;100.00;100410.03;5022030;28;20995;-49
2021/09/13 01:28:19;;;;;;;0.40;0.30;;;;;;;12.62;100.00;100411.63;5035029;28;20475;-50
2021/09/13 01:30:46;;;;;;;0.40;0.20;;;;;;;12.61;100.00;100417.00;5034852;28;20498;-50
2021/09/13 01:33:14;;;;;;;0.40;0.20;;;;;;;12.60;100.00;100412.59;5034852;28;20448;-49
2021/09/13 01:35:41;;;;;;;0.40;0.20;;;;;;;12.65;100.00;100406.19;5034694;28;20556;-49
2021/09/13 01:38:08;;;;;;;0.50;0.50;;;;;;;12.78;100.00;100411.97;5033836;28;20482;-49
2021/09/13 01:40:35;;;;;;;0.40;0.20;;;;;;;12.71;100.00;100416.63;5034834;28;20501;-49
2021/09/13 01:43:03;;;;;;;0.40;0.20;;;;;;;12.62;100.00;100414.28;5034844;28;20526;-50
2021/09/13 01:45:30;;;;;;;0.40;0.20;;;;;;;12.57;100.00;100415.38;5035047;28;21015;-50
2021/09/13 01:47:57;;;;;;;0.40;0.20;;;;;;;12.44;100.00;100420.25;5034632;28;20511;-49
2021/09/13 01:50:24;;;;;;;0.40;0.20;;;;;;;12.39;100.00;100406.22;5034807;28;20471;-49
2021/09/13 01:52:51;;;;;;;0.40;0.20;;;;;;;12.40;100.00;100421.28;5034680;28;20455;-50
2021/09/13 01:55:18;;;;;;;0.40;0.20;;;;;;;12.66;100.00;100412.38;5034543;28;20869;-49
2021/09/13 01:57:45;;;;;;;0.40;0.20;;;;;;;12.55;100.00;100409.22;5034389;28;20448;-50
2021/09/13 02:00:13;;;;;;;0.40;0.30;;;;;;;12.52;100.00;100410.19;5043004;28;21010;-49
2021/09/13 02:02:40;;;;;;;0.40;0.20;;;;;;;12.36;100.00;100419.66;5038555;28;20456;-49
2021/09/13 02:05:08;;;;;;;0.40;0.20;;;;;;;12.30;100.00;100415.38;5034411;28;20566;-49
2021/09/13 02:07:35;;;;;;;0.40;0.20;;;;;;;12.26;100.00;100413.75;5034157;28;21026;-49
2021/09/13 02:10:05;;;;;;;0.40;0.20;;;;;;;12.27;100.00;100410.16;5034572;28;20517;-50
2021/09/13 02:12:32;;;;;;;0.40;0.33;;;;;;;12.19;100.00;100409.53;5034056;28;20451;-48
2021/09/13 02:14:59;;;;;;;0.40;0.20;;;;;;;12.09;100.00;100410.78;5034277;28;20901;-48
2021/09/13 02:17:26;;;;;;;0.40;0.20;;;;;;;12.09;100.00;100416.13;5034445;28;20522;-48
2021/09/13 02:19:53;;;;;;;0.30;0.20;;;;;;;12.20;100.00;100411.31;5034154;28;20563;-48
2021/09/13 02:22:20;;;;;;;0.40;0.20;;;;;;;12.06;100.00;100414.44;5034051;28;20525;-49
2021/09/13 02:24:47;;;;;;;0.40;0.20;;;;;;;12.16;100.00;100410.50;5034428;28;21014;-48
2021/09/13 02:27:14;;;;;;;0.40;0.20;;;;;;;12.07;100.00;100410.84;5033817;28;20978;-48
2021/09/13 02:29:42;;;;;;;0.50;0.40;;;;;;;12.03;100.00;100414.50;5033873;28;20483;-50
2021/09/13 02:32:08;;;;;;;0.40;0.20;;;;;;;11.82;100.00;100412.53;5033845;28;20968;-48
2021/09/13 02:34:35;;;;;;;0.40;0.30;;;;;;;11.78;100.00;100424.16;5033621;28;20471;-48
2021/09/13 02:37:02;;;;;;;0.40;0.20;;;;;;;11.82;100.00;100426.72;5033600;28;20459;-47
2021/09/13 02:39:29;;;;;;;0.40;0.20;;;;;;;11.92;100.00;100415.75;5033691;28;20505;-50
2021/09/13 02:41:56;;;;;;;0.57;0.57;;;;;;;11.86;100.00;100417.72;5033587;28;20464;-48
2021/09/13 02:44:25;;;;;;;0.40;0.20;;;;;;;11.85;100.00;100418.63;5033504;28;20475;-48
2021/09/13 02:46:52;;;;;;;0.40;0.30;;;;;;;12.09;100.00;100416.13;5033620;28;20478;-47
2021/09/13 02:49:19;;;;;;;0.30;0.20;;;;;;;11.90;100.00;100421.13;5033158;28;20821;-49
2021/09/13 02:51:46;;;;;;;0.30;0.20;;;;;;;11.76;100.00;100424.22;5033431;28;20447;-47
2021/09/13 02:54:13;;;;;;;0.40;0.20;;;;;;;11.72;100.00;100422.56;5033266;28;20479;-48
2021/09/13 02:56:40;;;;;;;0.40;0.40;;;;;;;11.86;100.00;100425.69;5033186;28;20499;-49
2021/09/13 02:59:06;;;;;;;0.40;0.20;;;;;;;11.86;100.00;100422.16;5033312;28;20969;-48
2021/09/13 03:01:33;;;;;;;0.40;0.20;;;;;;;11.87;100.00;100421.25;5046227;28;21027;-47
2021/09/13 03:04:01;;;;;;;4.27;1.80;;;;;;;11.82;100.00;100425.84;5033264;28;20510;-47
2021/09/13 03:06:28;;;;;;;0.30;0.20;;;;;;;11.67;100.00;100428.97;5033038;28;20525;-48
2021/09/13 03:08:54;;;;;;;0.40;0.20;;;;;;;11.75;100.00;100432.25;5033173;28;20447;-48
2021/09/13 03:11:22;;;;;;;0.30;0.20;;;;;;;11.82;100.00;100423.19;5033068;28;20509;-48
2021/09/13 03:13:49;;;;;;;0.40;0.30;;;;;;;11.53;100.00;100430.25;5032995;28;20447;-47
2021/09/13 03:16:16;;;;;;;0.40;0.40;;;;;;;11.52;100.00;100432.97;5032978;28;20901;-48
2021/09/13 03:18:43;;;;;;;0.40;0.20;;;;;;;11.57;100.00;100436.34;5032930;28;20966;-48
2021/09/13 03:21:10;;;;;;;0.40;0.20;;;;;;;11.80;100.00;100430.38;5032968;28;20495;-48
2021/09/13 03:23:37;;;;;;;0.40;0.20;;;;;;;11.76;100.00;100429.53;5032746;28;20451;-49
2021/09/13 03:26:04;;;;;;;0.47;0.47;;;;;;;11.56;100.00;100435.47;5032782;28;20905;-47
2021/09/13 03:28:32;;;;;;;0.40;0.20;;;;;;;11.62;100.00;100428.22;5032772;28;20949;-48
2021/09/13 03:30:59;;;;;;;0.40;0.33;;;;;;;11.61;100.00;100426.47;5032960;28;20475;-48
2021/09/13 03:33:26;;;;;;;0.40;0.20;;;;;;;11.47;100.00;100430.44;5032753;28;20478;-47
2021/09/13 03:35:53;;;;;;;0.40;0.20;;;;;;;11.40;100.00;100436.00;5032393;28;20534;-48
2021/09/13 03:38:20;;;;;;;0.33;0.20;;;;;;;11.46;100.00;100427.81;5032830;28;20824;-49
2021/09/13 03:40:47;;;;;;;0.40;0.20;;;;;;;11.48;100.00;100442.81;5032823;28;20502;-48
2021/09/13 03:43:14;;;;;;;0.40;0.30;;;;;;;11.41;100.00;100422.63;5032690;28;20984;-48
2021/09/13 03:45:42;;;;;;;0.40;0.20;;;;;;;11.49;100.00;100427.72;5033046;28;20887;-48
2021/09/13 03:48:09;;;;;;;0.30;0.20;;;;;;;11.50;100.00;100427.66;5032701;28;20451;-48
2021/09/13 03:50:36;;;;;;;0.37;0.20;;;;;;;11.57;100.00;100429.25;5032851;28;20451;-51
2021/09/13 03:53:03;;;;;;;0.40;0.20;;;;;;;11.60;100.00;100427.41;5032283;28;20960;-52
2021/09/13 03:55:32;;;;;;;0.40;0.20;;;;;;;11.51;100.00;100424.13;5032188;28;20495;-52
2021/09/13 03:57:59;;;;;;;0.40;0.30;;;;;;;11.59;100.00;100421.19;5032430;28;20509;-51
2021/09/13 04:00:26;;;;;;;0.40;0.40;;;;;;;11.51;100.00;100413.47;5042002;28;20447;-51
2021/09/13 04:02:53;;;;;;;0.40;0.20;;;;;;;11.46;100.00;100409.19;5034833;28;20456;-51
2021/09/13 04:05:22;;;;;;;2.40;2.20;;;;;;;11.40;100.00;100412.03;5032097;28;20475;-51
2021/09/13 04:12:53;;;;;;;0.40;0.20;;;;;;;11.22;100.00;100419.63;5032179;28;20478;-51
2021/09/13 04:15:19;;;;;;;0.30;0.20;;;;;;;11.30;100.00;100422.06;5031970;28;20496;-51
2021/09/13 04:17:46;;;;;;;0.40;0.30;;;;;;;11.26;100.00;100415.97;5032094;28;20448;-52
2021/09/13 04:20:14;;;;;;;0.30;0.20;;;;;;;11.21;100.00;100419.69;5032103;28;20968;-51
2021/09/13 04:22:41;;;;;;;0.40;0.30;;;;;;;11.34;100.00;100420.19;5026760;28;20509;-51
2021/09/13 04:25:09;;;;;;;0.40;0.30;;;;;;;11.22;100.00;100408.97;5032040;28;20467;-51
2021/09/13 04:27:35;;;;;;;0.30;0.20;;;;;;;11.28;100.00;100413.28;5032164;28;20451;-51
2021/09/13 04:30:03;;;;;;;0.30;0.20;;;;;;;11.24;100.00;100416.94;5032027;28;20807;-51
2021/09/13 04:32:30;;;;;;;0.30;0.20;;;;;;;11.20;100.00;100413.47;5032012;28;20451;-51
2021/09/13 04:34:57;;;;;;;0.30;0.20;;;;;;;11.12;100.00;100422.63;5031774;28;20518;-51
2021/09/13 04:37:24;;;;;;;0.30;0.20;;;;;;;11.22;100.00;100422.28;5032038;28;20448;-51
2021/09/13 04:39:51;;;;;;;0.30;0.30;;;;;;;11.24;100.00;100424.94;5031842;28;20484;-51
2021/09/13 04:42:18;;;;;;;0.30;0.20;;;;;;;11.07;100.00;100429.84;5031936;28;20940;-51
2021/09/13 04:44:44;;;;;;;0.40;0.30;;;;;;;11.03;100.00;100425.53;5031568;28;20502;-51
2021/09/13 04:47:11;;;;;;;0.30;0.20;;;;;;;10.95;100.00;100428.41;5032101;28;20956;-51
2021/09/13 04:49:38;;;;;;;0.30;0.20;;;;;;;11.12;100.00;100430.59;5031688;28;20483;-51
2021/09/13 04:52:05;;;;;;;0.30;0.20;;;;;;;10.99;100.00;100432.75;5031989;28;20501;-51
2021/09/13 04:54:32;;;;;;;0.30;0.20;;;;;;;11.01;100.00;100432.69;5031697;28;20881;-51
2021/09/13 04:56:59;;;;;;;0.30;0.20;;;;;;;11.05;100.00;100427.22;5031708;28;20492;-51
2021/09/13 04:59:26;;;;;;;0.30;0.20;;;;;;;11.17;100.00;100434.00;5034001;28;20487;-51
2021/09/13 05:01:53;;;;;;;0.50;0.50;;;;;;;11.20;100.00;100433.91;5042766;28;20462;-51
2021/09/13 05:04:20;;;;;;;0.40;0.20;;;;;;;11.28;100.00;100424.78;5033141;28;20459;-51
2021/09/13 05:06:47;;;;;;;0.30;0.20;;;;;;;11.45;100.00;100418.09;5028547;22;20511;-50
2021/09/13 05:09:14;;;;;;;0.30;0.20;;;;;;;11.43;100.00;100423.47;5031602;28;20459;-50
2021/09/13 05:11:42;;;;;;;0.30;0.20;;;;;;;11.36;100.00;100421.00;5033475;28;20451;-50
2021/09/13 05:14:09;;;;;;;0.40;0.20;;;;;;;11.61;100.00;100423.81;5035372;28;20455;-51
2021/09/13 05:16:39;;;;;;;0.30;0.20;;;;;;;11.65;100.00;100425.44;5035394;28;20597;-50
2021/09/13 05:19:06;;;;;;;1.13;1.13;;;;;;;11.77;100.00;100425.06;5035333;28;20451;-51
2021/09/13 05:21:37;;;;;;;0.57;0.57;;;;;;;11.91;100.00;100430.88;5035421;28;20452;-50
2021/09/13 05:24:05;;;;;;;0.40;0.30;;;;;;;11.94;100.00;100437.91;5035042;28;20447;-50
2021/09/13 05:26:33;;;;;;;0.40;0.30;;;;;;;11.79;100.00;100436.63;5035033;28;20464;-50
2021/09/13 05:29:00;;;;;;;0.67;0.53;;;;;;;11.84;100.00;100445.31;5035208;28;20458;-50
2021/09/13 05:31:27;;;;;;;0.30;0.20;;;;;;;11.93;100.00;100436.19;5034964;28;20452;-52
2021/09/13 05:33:54;;;;;;;0.40;0.20;;;;;;;12.12;100.00;100437.31;5017468;28;20892;-50
2021/09/13 05:36:21;;;;;;;0.50;0.50;;;;;;;12.17;100.00;100440.69;5034782;28;20505;-51
2021/09/13 05:38:48;;;;;;;0.40;0.20;;;;;;;12.10;100.00;100437.38;5034701;28;20892;-54
2021/09/13 05:41:15;;;;;;;0.40;0.37;;;;;;;12.25;100.00;100440.47;5035038;28;20475;-50
2021/09/13 05:43:42;;;;;;;0.30;0.20;;;;;;;12.43;100.00;100440.69;5034809;28;20456;-50
2021/09/13 05:46:09;;;;;;;0.30;0.20;;;;;;;12.59;100.00;100443.72;5034957;28;20468;-50
2021/09/13 05:48:36;;;;;;;0.30;0.20;;;;;;;12.75;100.00;100444.09;5034744;28;20458;-50
2021/09/13 05:51:03;;;;;;;0.40;0.20;;;;;;;12.78;100.00;100451.09;5034679;28;20452;-50
2021/09/13 05:53:30;;;;;;;0.60;0.60;;;;;;;12.79;100.00;100444.84;5034489;28;20484;-51
2021/09/13 05:55:57;;;;;;;1.20;1.20;;;;;;;12.88;100.00;100437.34;5034759;28;20557;-51
2021/09/13 05:58:24;;;;;;;0.30;0.20;;;;;;;12.85;100.00;100434.81;5034758;28;20456;-50
2021/09/13 06:00:51;;;;;;;0.50;0.50;;;;;;;12.84;100.00;100437.53;5047539;28;20871;-50
2021/09/13 06:03:18;;;;;;;0.40;0.20;;;;;;;12.95;100.00;100432.69;5017079;28;20454;-49
2021/09/13 06:05:45;;;;;;;0.30;0.30;;;;;;;13.05;100.00;100434.09;5034103;28;21027;-50
2021/09/13 06:08:12;;;;;;;0.40;0.20;;;;;;;13.15;100.00;100439.94;5034245;28;20456;-50
2021/09/13 06:10:39;;;;;;;0.30;0.20;;;;;;;13.13;100.00;100434.69;5034347;28;20881;-50
2021/09/13 06:13:11;;;;;;;0.40;0.20;;;;;;;13.27;100.00;100437.75;5016901;28;20522;-50
2021/09/13 06:15:39;;;;;;;0.40;0.20;;;;;;;13.27;100.00;100435.06;5016669;28;20476;-50
2021/09/13 06:18:07;;;;;;;0.30;0.20;;;;;;;13.37;100.00;100437.41;5034356;28;20452;-50
2021/09/13 06:20:34;;;;;;;0.30;0.20;;;;;;;13.43;100.00;100445.16;5034040;28;20535;-51
2021/09/13 06:23:01;;;;;;;0.40;0.20;;;;;;;13.44;100.00;100444.28;5033790;28;20455;-53
2021/09/13 06:25:28;;;;;;;0.40;0.37;;;;;;;13.51;100.00;100440.41;5033874;28;20521;-53
2021/09/13 06:27:55;;;;;;;6.00;2.93;;;;;;;13.59;100.00;100451.69;5034258;28;20509;-53
2021/09/13 06:30:22;;;;;;;0.40;0.20;;;;;;;13.82;100.00;100448.97;5034263;28;20479;-53
2021/09/13 06:32:48;;;;;;;2.10;1.17;;;;;;;13.96;100.00;100450.22;5034062;28;20948;-54
2021/09/13 06:35:15;;;;;;;0.40;0.20;;;;;;;13.99;100.00;100444.78;5016098;28;20503;-54
2021/09/13 06:37:42;;;;;;;0.47;0.47;;;;;;;14.40;100.00;100443.97;5033738;28;20522;-53
2021/09/13 06:40:09;;;;;;;0.40;0.30;;;;;;;14.04;100.00;100457.03;5033745;28;20458;-53
2021/09/13 06:42:38;;;;;;;0.40;0.20;;;;;;;14.07;100.00;100446.22;5033754;28;20505;-54
2021/09/13 06:45:17;;;;;;;0.40;0.20;;;;;;;14.16;100.00;100447.66;5016108;28;20471;-54
2021/09/13 06:47:46;;;;;;;0.40;0.20;;;;;;;14.09;100.00;100447.00;5033610;28;20480;-54
2021/09/13 06:50:28;;;;;;;0.40;0.20;;;;;;;14.28;100.00;100440.94;5033359;28;20506;-53
2021/09/13 06:52:56;;;;;;;0.40;0.20;;;;;;;14.40;100.00;100446.63;5033338;28;20486;-54
2021/09/13 06:55:23;;;;;;;1.27;0.80;;;;;;;14.46;100.00;100446.41;5033266;28;20476;-54
2021/09/13 06:57:51;;;;;;;0.40;0.20;;;;;;;14.79;100.00;100445.88;5033084;28;20486;-54
2021/09/13 07:00:20;;;;;;;0.83;0.83;;;;;;;14.78;100.00;100449.50;5043037;28;20469;-54
2021/09/13 07:02:49;;;;;;;0.40;0.30;;;;;;;14.78;100.00;100454.84;5036759;28;20455;-54
2021/09/13 07:05:16;;;;;;;0.40;0.20;;;;;;;14.83;100.00;100463.56;5033196;28;20525;-54
2021/09/13 07:07:44;;;;;;;0.40;0.40;;;;;;;15.07;100.00;100465.16;5033124;28;20513;-54
2021/09/13 07:10:18;;;;;;;0.60;0.60;;;;;;;14.95;100.00;100471.06;5033219;28;20460;-54
2021/09/13 07:12:49;;;;;;;0.40;0.20;;;;;;;15.04;100.00;100467.97;5032905;28;20990;-54
2021/09/13 07:15:16;;;;;;;0.40;0.20;;;;;;;15.30;100.00;100471.31;5033085;28;20887;-55
2021/09/13 07:17:43;;;;;;;0.60;0.60;;;;;;;15.23;100.00;100472.53;5033010;28;20487;-54
2021/09/13 07:20:12;;;;;;;0.40;0.30;;;;;;;15.23;100.00;100470.72;5033096;28;20456;-54
2021/09/13 07:22:40;;;;;;;0.40;0.20;;;;;;;15.31;100.00;100476.59;5032889;28;20475;-54
2021/09/13 07:25:07;;;;;;;0.53;0.47;;;;;;;15.55;100.00;100479.97;5032682;28;20475;-54
2021/09/13 07:27:34;;;;;;;0.40;0.30;;;;;;;15.46;100.00;100484.88;5032759;28;20498;-54
2021/09/13 07:30:03;;;;;;;0.40;0.30;;;;;;;15.48;100.00;100478.50;5033127;28;20456;-54
2021/09/13 07:32:30;;;;;;;0.40;0.20;;;;;;;15.59;100.00;100478.91;5002188;28;20455;-54
2021/09/13 07:34:57;;;;;;;5.63;2.90;;;;;;;16.30;100.00;100479.97;5031370;28;20517;-54
2021/09/13 07:37:24;;;;;;;19.30;2.40;;;;;;;16.07;100.00;100471.31;5032554;28;21003;-55
2021/09/13 07:39:51;;;;;;;0.40;0.20;;;;;;;16.30;100.00;100474.59;5032677;28;20456;-54
2021/09/13 07:42:20;;;;;;;0.60;0.60;;;;;;;16.80;100.00;100479.28;5033226;28;20451;-53
2021/09/13 07:44:47;;;;;;;2.17;0.70;;;;;;;16.54;100.00;100475.19;5033000;28;20448;-55
2021/09/13 07:47:14;;;;;;;0.40;0.20;;;;;;;16.38;100.00;100476.03;5015329;28;20452;-54
2021/09/13 07:49:41;;;;;;;0.40;0.20;;;;;;;16.23;100.00;100489.28;5032611;28;20498;-55
2021/09/13 07:52:08;;;;;;;0.40;0.40;;;;;;;16.51;100.00;100482.53;5032532;28;20490;-54
2021/09/13 07:54:35;;;;;;;0.40;0.20;;;;;;;16.64;100.00;100486.34;5032575;28;20448;-55
2021/09/13 07:57:02;;;;;;;0.40;0.20;;;;;;;16.87;100.00;100490.59;5032517;28;20498;-54
2021/09/13 07:59:29;;;;;;;0.40;0.20;;;;;;;16.85;100.00;100489.78;5034883;28;20447;-54
2021/09/13 08:01:56;;;;;;;0.40;0.30;;;;;;;16.95;100.00;100487.50;5042997;28;20455;-54
2021/09/13 08:04:23;;;;;;;1.13;1.13;;;;;;;17.38;98.06;100486.09;5032220;28;21043;-54
2021/09/13 08:06:50;;;;;;;0.50;0.33;;;;;;;17.22;99.21;100490.56;5032236;28;20503;-54
2021/09/13 08:09:17;;;;;;;0.43;0.37;;;;;;;17.22;99.39;100486.06;5032165;28;20463;-55
2021/09/13 08:11:44;;;;;;;0.50;0.47;;;;;;;17.32;98.66;100490.00;5032698;28;20817;-55
2021/09/13 08:14:11;;;;;;;0.40;0.20;;;;;;;17.24;98.06;100489.53;5032076;28;20834;-54
2021/09/13 08:16:38;;;;;;;0.40;0.20;;;;;;;17.37;97.90;100487.91;5032151;28;20985;-54
2021/09/13 08:19:05;;;;;;;0.40;0.20;;;;;;;17.65;96.88;100489.13;5032079;28;20448;-54
2021/09/13 08:21:34;;;;;;;0.40;0.20;;;;;;;17.85;95.83;100488.06;5032079;28;20873;-54
2021/09/13 08:24:01;;;;;;;0.40;0.20;;;;;;;17.72;96.84;100499.50;5032090;28;20448;-53
2021/09/13 08:26:28;;;;;;;0.40;0.20;;;;;;;17.91;95.55;100496.66;5032175;28;20895;-54
2021/09/13 08:28:55;;;;;;;0.40;0.30;;;;;;;17.94;95.16;100495.59;5031959;28;20448;-55
2021/09/13 08:31:22;;;;;;;0.40;0.20;;;;;;;18.11;94.50;100498.25;5031989;28;20478;-54
2021/09/13 08:33:49;;;;;;;0.40;0.30;;;;;;;18.49;93.58;100495.16;5031999;28;20534;-55
2021/09/13 08:36:16;;;;;;;0.50;0.40;;;;;;;18.52;93.17;100495.00;5031977;28;20526;-54
2021/09/13 08:38:43;;;;;;;0.50;0.40;;;;;;;18.81;92.47;100504.09;5031917;28;20499;-55
2021/09/13 08:41:10;;;;;;;0.50;0.50;;;;;;;18.94;92.07;100505.97;5031994;28;20478;-54
2021/09/13 08:43:39;;;;;;;0.40;0.20;;;;;;;19.05;90.85;100501.75;5031786;28;21016;-54
2021/09/13 08:46:15;;;;;;;0.50;0.50;;;;;;;19.26;90.98;100502.28;5033121;28;20517;-54
2021/09/13 08:48:51;;;;;;;0.40;0.30;;;;;;;19.33;90.06;100501.84;5036078;28;20451;-55
2021/09/13 08:51:29;;;;;;;0.40;0.20;;;;;;;19.14;89.86;100501.22;5036097;28;20451;-54
2021/09/13 08:54:01;;;;;;;0.40;0.20;;;;;;;19.35;88.98;100494.50;5035879;28;20451;-55
2021/09/13 08:56:34;;;;;;;0.40;0.20;;;;;;;19.21;89.52;100497.19;5035974;28;21046;-55
2021/09/13 08:59:04;;;;;;;0.40;0.20;;;;;;;19.57;89.21;100502.16;5035481;28;20885;-55
2021/09/13 09:01:32;;;;;;;0.50;0.50;;;;;;;19.89;88.22;100505.53;5048344;28;20490;-55
2021/09/13 09:04:02;;;;;;;0.40;0.20;;;;;;;20.05;86.50;100505.41;5035595;28;20447;-54
2021/09/13 09:06:37;;;;;;;0.50;0.30;;;;;;;19.97;85.97;100513.13;5035316;28;20995;-54
2021/09/13 09:09:09;;;;;;;0.40;0.20;;;;;;;20.39;85.67;100501.38;5035427;28;20482;-55
2021/09/13 09:11:56;;;;;;;0.40;0.30;;;;;;;20.16;85.18;100496.63;5035708;28;20498;-54
2021/09/13 09:14:48;;;;;;;0.40;0.30;;;;;;;20.77;83.73;100504.25;5035446;28;20979;-55
2021/09/13 09:17:27;;;;;;;0.40;0.20;;;;;;;20.98;82.97;100502.81;5035518;28;20487;-55
2021/09/13 09:20:10;;;;;;;0.50;0.40;;;;;;;20.72;83.38;100489.34;5035440;28;20525;-55
2021/09/13 09:22:40;;;;;;;0.40;0.20;;;;;;;20.83;82.93;100493.06;5029443;28;20511;-55
2021/09/13 09:25:23;;;;;;;0.40;0.20;;;;;;;20.68;77.29;100488.66;5035404;28;20518;-54
2021/09/13 09:27:59;;;;;;;0.40;0.30;;;;;;;21.08;76.56;100481.41;5017642;28;20955;-54
2021/09/13 09:30:40;;;;;;;0.40;0.30;;;;;;;21.08;75.57;100491.34;5035035;28;20422;-55
2021/09/13 09:33:12;;;;;;;0.70;0.70;;;;;;;21.17;76.93;100490.72;5035170;28;20858;-55
2021/09/13 09:35:41;;;;;;;0.50;0.47;;;;;;;21.00;74.49;100497.31;5034916;28;20507;-54
2021/09/13 09:38:30;;;;;;;0.43;0.30;;;;;;;20.89;75.54;100489.91;5035278;28;21035;-54
2021/09/13 09:41:10;;;;;;;0.50;0.37;;;;;;;21.07;75.04;100493.19;5034832;28;20422;-55
2021/09/13 09:43:46;;;;;;;0.50;0.50;;;;;;;21.30;75.15;100488.94;5034818;28;20447;-55
2021/09/13 09:46:13;;;;;;;0.40;0.20;;;;;;;21.24;73.87;100487.50;5035029;28;20621;-55
2021/09/13 09:48:40;;;;;;;0.53;0.53;;;;;;;21.61;75.01;100481.34;5004259;28;20482;-54
2021/09/13 09:51:30;;;;;;;2.30;0.50;;;;;;;21.50;75.00;100487.53;5034629;28;20924;-54
2021/09/13 09:54:06;;;;;;;0.40;0.30;;;;;;;21.94;74.68;100492.47;5024896;28;20784;-55
2021/09/13 09:56:33;;;;;;;0.50;0.30;;;;;;;21.84;72.87;100484.16;5034913;28;20502;-54
2021/09/13 09:59:06;;;;;;;2.00;0.70;;;;;;;21.94;73.07;100473.53;5033653;28;20476;-55
2021/09/13 10:01:36;;;;;;;0.57;0.57;;;;;;;21.96;74.53;100473.41;5047349;28;20449;-54
2021/09/13 10:04:21;;;;;;;0.50;0.40;;;;;;;22.35;72.86;100475.91;5034634;28;20455;-55
2021/09/13 10:06:51;;;;;;;0.47;0.37;;;;;;;22.10;71.52;100471.44;5016663;28;20486;-55
2021/09/13 10:09:20;;;;;;;1.33;1.33;;;;;;;21.86;71.91;100460.53;5034245;28;20964;-54
2021/09/13 10:11:50;;;;;;;0.40;0.30;;;;;;;22.22;72.00;100458.00;5034358;28;20513;-55
2021/09/13 10:14:21;;;;;;;0.70;0.70;;;;;;;22.65;71.72;100451.06;5034490;28;20461;-54
2021/09/13 10:16:49;;;;;;;0.70;0.70;;;;;;;22.21;71.25;100453.56;5034127;28;20546;-54
2021/09/13 10:19:19;;;;;;;2.10;2.00;;;;;;;22.39;71.22;100458.44;5034164;28;20426;-54
2021/09/13 10:21:47;;;;;;;0.60;0.60;;;;;;;22.20;72.17;100441.81;5034100;28;20510;-54
2021/09/13 10:24:27;;;;;;;0.40;0.30;;;;;;;22.10;73.15;100443.50;5033776;28;20473;-54
2021/09/13 10:26:59;;;;;;;0.40;0.30;;;;;;;22.18;73.10;100441.94;5034077;28;20608;-54
2021/09/13 10:29:27;;;;;;;0.53;0.47;;;;;;;22.10;73.05;100441.66;5034054;28;20493;-55
2021/09/13 10:31:57;;;;;;;1.57;1.47;;;;;;;22.28;73.11;100425.00;5033939;28;20453;-55
2021/09/13 10:34:31;;;;;;;0.40;0.30;;;;;;;22.22;72.25;100433.63;5033880;28;20452;-54
2021/09/13 10:36:59;;;;;;;0.43;0.30;;;;;;;22.31;73.38;100420.22;5016200;28;20497;-55
2021/09/13 10:39:46;;;;;;;0.40;0.20;;;;;;;22.29;72.86;100424.91;5033715;28;20509;-55
2021/09/13 10:42:28;;;;;;;0.60;0.60;;;;;;;22.56;71.36;100424.66;5021073;28;20434;-55
2021/09/13 10:45:40;;;;;;;0.40;0.30;;;;;;;22.55;71.35;100424.78;5033616;28;20452;-55
2021/09/13 10:48:19;;;;;;;0.40;0.30;;;;;;;22.84;70.80;100422.56;5030165;28;20466;-54
2021/09/13 10:50:51;;;;;;;4.53;0.70;;;;;;;23.02;70.53;100419.28;5033563;28;20513;-55
2021/09/13 10:53:18;;;;;;;0.50;0.37;;;;;;;23.12;69.56;100426.69;5033442;28;20426;-55
2021/09/13 10:55:55;;;;;;;0.63;0.63;;;;;;;23.08;70.50;100420.66;5032531;28;20454;-55
2021/09/13 10:58:46;;;;;;;0.40;0.30;;;;;;;23.10;68.27;100418.69;5026724;28;20491;-54
2021/09/13 11:01:12;;;;;;;0.50;0.33;;;;;;;22.88;69.18;100422.19;5033262;28;20443;-55
2021/09/13 11:03:41;;;;;;;0.50;0.43;;;;;;;23.21;68.40;100417.84;5033305;28;20430;-55
2021/09/13 11:06:12;;;;;;;0.60;0.50;;;;;;;23.20;67.97;100405.28;5034231;28;20582;-54
2021/09/13 11:08:41;;;;;;;0.50;0.40;;;;;;;23.82;67.95;100400.22;5035179;28;20551;-54
2021/09/13 11:11:33;;;;;;;0.97;0.97;;;;;;;23.39;66.61;100415.50;5034460;28;20506;-54
2021/09/13 11:14:05;;;;;;;0.50;0.30;;;;;;;23.19;66.17;100401.69;5034165;28;20426;-55
2021/09/13 11:16:35;;;;;;;0.40;0.27;;;;;;;23.06;64.87;100400.94;5034628;28;20474;-54
2021/09/13 11:19:09;;;;;;;1.00;0.83;;;;;;;23.07;65.29;100399.94;5035908;28;20488;-54
2021/09/13 11:21:39;;;;;;;0.40;0.30;;;;;;;23.43;64.75;100403.41;5034988;28;20469;-54
2021/09/13 11:24:18;;;;;;;5.40;2.03;;;;;;;23.62;63.96;100396.44;5034985;28;20931;-54
2021/09/13 11:26:50;;;;;;;0.40;0.30;;;;;;;23.75;64.89;100395.44;5035133;28;20467;-54
2021/09/13 11:29:32;;;;;;;0.50;0.40;;;;;;;23.34;65.80;100399.59;5035916;28;20447;-54
2021/09/13 11:32:02;;;;;;;0.40;0.23;;;;;;;23.43;65.13;100390.72;5036524;28;20448;-55
2021/09/13 11:34:41;;;;;;;0.50;0.40;;;;;;;23.48;65.46;100384.94;5035750;28;20448;-55